Hlavní strana
METAR-TAF:

METAR-TAF

Letiště :

Turaif, Saúdská Arábie

zeměpisná šířka: 31-41N, zeměpisná délka: 038-44E, výška: 813 m

Aktuální stav počasí

Zpráva byla vytvořena před 49 minutami, v 02:00 UTC
Jihojihozápadní vítr 4 kt
Teplota 20°C
Vlhkost vzduchu 37%
Tlak 1013 hPa
Viditelnost 10 km a více
Žádná oblačnost pod 1500 m, nevyskytují se cumulonimby.

METAR: OETR 060200Z 21004KT CAVOK 20/05 Q1013

Čas: 05:49 (02:49 UTC)

Předpověď počasí

Zpráva byla vytvořena před 15 hodinami a 49 minutami, v 11:00 UTC
Předpověď platná od 05 v 12 UTC do 06 v 18 UTC
Jižní vítr 13 kt
Viditelnost: 5000 m
Skoro jasno ve výšce 3000 ft
Polojasno ve výšce 9000 ft
rozsáhlý prach
Změna
od 05 v 18 UTC do 05 v 20 UTC
Jihovýchodní vítr 15 kt
Změna
od 06 v 06 UTC do 06 v 08 UTC
Západní vítr 12 kt
Viditelnost: 6000 m
Změna
od 06 v 15 UTC do 06 v 17 UTC
Severní vítr 6 kt

TAF: OETR 051100Z 0512/0618 19013KT 5000 DU FEW030 SCT090 BECMG 0518/0520 13015KT BECMG 0606/0608 28012KT 6000 NSC BECMG 0615/0617 35006KT

Stav a předpovědi počasí z více než 4 000 letišť (zprávy METAR a TAF).

Červené a žluté tečky na mapě představují dostupné meteorologické stanice.

Když kurzor umístíte na tečku, zobrazí se název stanice.

Pak kliknutím zobrazíte stav a předpověď počasí.

Chcete-li změnit mapu, kliknutím na zelené tlačítko se znaménkem +mapu přiblížíte, kliknutím na zelené tlačítko se znaménkem – mapu oddálíte a kliknutím na zelené šipky přejdete na sousední mapy.


METAR-TAF: